createdAt,value
2023-03-20T00:02:00.265Z,8.09
2023-03-20T00:04:31.779Z,8.06
2023-03-20T00:06:58.631Z,8.08
2023-03-20T00:09:30.988Z,8.07
2023-03-20T00:12:02.173Z,8.06
2023-03-20T00:14:28.732Z,8.04
2023-03-20T00:16:55.188Z,8.04
2023-03-20T00:19:32.036Z,8.02
2023-03-20T00:22:00.832Z,8.03
2023-03-20T00:24:33.082Z,8.00
2023-03-20T00:27:02.735Z,7.97
2023-03-20T00:29:32.853Z,7.97
2023-03-20T00:32:01.797Z,7.99
2023-03-20T00:34:29.576Z,8.00
2023-03-20T00:37:00.398Z,8.01
2023-03-20T00:39:29.553Z,8.02
2023-03-20T00:42:02.631Z,8.02
2023-03-20T00:44:41.815Z,8.03
2023-03-20T00:47:19.137Z,8.01
2023-03-20T00:49:50.721Z,8.01
2023-03-20T00:52:22.479Z,7.99
2023-03-20T00:54:48.974Z,7.98
2023-03-20T00:57:28.167Z,7.97
2023-03-20T01:00:02.299Z,7.95
2023-03-20T01:02:31.866Z,7.91
2023-03-20T01:05:03.630Z,7.91
2023-03-20T01:07:30.149Z,7.91
2023-03-20T01:09:59.176Z,7.93
2023-03-20T01:12:26.601Z,7.92
2023-03-20T01:14:58.692Z,7.89
2023-03-20T01:17:27.401Z,7.90
2023-03-20T01:19:54.018Z,7.94
2023-03-20T01:22:20.775Z,7.93
2023-03-20T01:24:48.717Z,7.92
2023-03-20T01:27:17.805Z,7.91
2023-03-20T01:29:49.360Z,7.91
2023-03-20T01:32:18.742Z,7.91
2023-03-20T01:34:45.249Z,7.93
2023-03-20T01:37:17.035Z,7.93
2023-03-20T01:39:46.307Z,7.89
2023-03-20T01:42:18.569Z,7.89
2023-03-20T01:44:45.701Z,7.88
2023-03-20T01:47:19.569Z,7.86
2023-03-20T01:50:23.017Z,7.84
2023-03-20T01:52:54.329Z,7.81
2023-03-20T01:55:22.508Z,7.77
2023-03-20T01:57:51.456Z,7.80
2023-03-20T02:00:20.194Z,7.78
2023-03-20T02:02:48.318Z,7.77
2023-03-20T02:05:18.760Z,7.74
2023-03-20T02:07:49.973Z,7.66
2023-03-20T02:10:20.523Z,7.57
2023-03-20T02:12:51.718Z,7.53
2023-03-20T02:15:18.737Z,7.50
2023-03-20T02:17:45.470Z,7.50
2023-03-20T02:20:33.107Z,7.50
2023-03-20T02:23:05.319Z,7.51
2023-03-20T02:25:43.849Z,7.51
2023-03-20T02:28:48.602Z,7.53
2023-03-20T02:31:33.785Z,7.54
2023-03-20T02:34:19.297Z,7.53
2023-03-20T02:37:22.153Z,7.51
2023-03-20T02:39:51.666Z,7.51
2023-03-20T02:42:33.271Z,7.47
2023-03-20T02:45:17.523Z,7.49
2023-03-20T02:48:00.049Z,7.48
2023-03-20T02:50:54.396Z,7.48
2023-03-20T02:53:26.580Z,7.46
2023-03-20T02:56:14.347Z,7.46
2023-03-20T02:59:12.263Z,7.46
2023-03-20T03:01:44.312Z,7.44
2023-03-20T03:04:21.149Z,7.45
2023-03-20T03:06:55.777Z,7.43
2023-03-20T03:09:32.438Z,7.41
2023-03-20T03:12:16.592Z,7.31
2023-03-20T03:14:53.822Z,7.23
2023-03-20T03:17:26.223Z,7.17
2023-03-20T03:20:07.870Z,7.10
2023-03-20T03:22:36.313Z,7.05
2023-03-20T03:25:05.111Z,7.04
2023-03-20T03:27:42.372Z,7.05
2023-03-20T03:30:24.996Z,7.02
2023-03-20T03:33:11.392Z,7.02
2023-03-20T03:35:41.622Z,6.99
2023-03-20T03:38:36.016Z,6.95
2023-03-20T03:41:10.321Z,6.92
2023-03-20T03:44:12.031Z,6.86
2023-03-20T03:46:58.053Z,6.85
2023-03-20T03:49:34.223Z,6.80
2023-03-20T03:52:09.992Z,6.76
2023-03-20T03:54:45.970Z,6.70
2023-03-20T03:57:16.660Z,6.65
2023-03-20T03:59:50.168Z,6.63
2023-03-20T04:02:23.114Z,6.59
2023-03-20T04:04:55.802Z,6.55
2023-03-20T04:07:29.358Z,6.55
2023-03-20T04:10:00.928Z,6.54
2023-03-20T04:12:37.207Z,6.52
2023-03-20T04:15:05.023Z,6.52
2023-03-20T04:17:32.037Z,6.52
2023-03-20T04:19:58.981Z,6.52
2023-03-20T04:22:27.806Z,6.51
2023-03-20T04:24:56.591Z,6.49
2023-03-20T04:27:25.378Z,6.47
2023-03-20T04:29:54.179Z,6.47
2023-03-20T04:32:25.499Z,6.48
2023-03-20T04:34:54.331Z,6.49
2023-03-20T04:37:25.692Z,6.50
2023-03-20T04:39:53.246Z,6.53
2023-03-20T04:42:24.602Z,6.50
2023-03-20T04:44:51.106Z,6.51
2023-03-20T04:47:17.547Z,6.54
2023-03-20T04:49:46.096Z,6.55
2023-03-20T04:52:12.595Z,6.54
2023-03-20T04:54:41.320Z,6.54
2023-03-20T04:57:10.385Z,6.53
2023-03-20T04:59:36.858Z,6.52
2023-03-20T05:02:03.439Z,6.54
2023-03-20T05:04:35.001Z,6.54
2023-03-20T05:07:01.560Z,6.53
2023-03-20T05:09:28.126Z,6.54
2023-03-20T05:11:57.727Z,6.54
2023-03-20T05:14:26.627Z,6.53
2023-03-20T05:16:55.522Z,6.52
2023-03-20T05:19:22.342Z,6.52
2023-03-20T05:21:48.838Z,6.52
2023-03-20T05:24:15.403Z,6.51
2023-03-20T05:26:47.292Z,6.51
2023-03-20T05:29:16.332Z,6.51
2023-03-20T05:31:42.825Z,6.51
2023-03-20T05:34:11.491Z,6.52
2023-03-20T05:36:39.223Z,6.53
2023-03-20T05:39:06.270Z,6.52
2023-03-20T05:41:35.305Z,6.52
2023-03-20T05:44:07.258Z,6.52
2023-03-20T05:46:33.793Z,6.52
2023-03-20T05:49:00.842Z,6.52
2023-03-20T05:51:29.722Z,6.52
2023-03-20T05:53:56.286Z,6.53
2023-03-20T05:56:25.079Z,6.51
2023-03-20T05:58:54.167Z,6.52
2023-03-20T06:01:26.090Z,6.55
2023-03-20T06:03:52.606Z,6.55
2023-03-20T06:06:19.092Z,6.58
2023-03-20T06:08:46.665Z,6.56
2023-03-20T06:11:21.154Z,6.57
2023-03-20T06:13:50.040Z,6.58
2023-03-20T06:16:16.562Z,6.61
2023-03-20T06:18:43.039Z,6.64
2023-03-20T06:21:14.511Z,6.64
2023-03-20T06:23:41.022Z,6.65
2023-03-20T06:26:08.169Z,6.64
2023-03-20T06:28:37.166Z,6.66
2023-03-20T06:31:03.758Z,6.64
2023-03-20T06:33:30.364Z,6.63
2023-03-20T06:35:56.909Z,6.64
2023-03-20T06:38:23.366Z,6.63
2023-03-20T06:40:54.517Z,6.63
2023-03-20T06:43:23.434Z,6.63
2023-03-20T06:45:55.543Z,6.64
2023-03-20T06:48:24.462Z,6.66
2023-03-20T06:50:52.893Z,6.69
2023-03-20T06:53:20.155Z,6.69
2023-03-20T06:55:48.078Z,6.70
2023-03-20T06:58:17.434Z,6.70
2023-03-20T07:00:44.458Z,6.73
2023-03-20T07:03:12.730Z,6.75
2023-03-20T07:05:44.962Z,6.75
2023-03-20T07:08:11.791Z,6.76
2023-03-20T07:10:39.161Z,6.76
2023-03-20T07:13:07.923Z,6.80
2023-03-20T07:15:37.153Z,6.78
2023-03-20T07:18:03.910Z,6.77
2023-03-20T07:20:30.708Z,6.81
2023-03-20T07:22:59.677Z,6.77
2023-03-20T07:25:41.315Z,6.77
2023-03-20T07:28:11.912Z,6.78
2023-03-20T07:30:38.407Z,6.81
2023-03-20T07:33:05.048Z,6.84
2023-03-20T07:35:34.104Z,6.87
2023-03-20T07:38:00.995Z,6.86
2023-03-20T07:40:27.468Z,6.86
2023-03-20T07:42:56.143Z,6.84
2023-03-20T07:45:22.726Z,6.85
2023-03-20T07:47:49.515Z,6.86
2023-03-20T07:50:19.371Z,6.87
2023-03-20T07:52:49.425Z,6.90
2023-03-20T07:55:18.447Z,6.95
2023-03-20T07:57:45.330Z,6.96
2023-03-20T08:00:15.266Z,6.95
2023-03-20T08:02:42.046Z,6.97
2023-03-20T08:05:11.309Z,7.01
2023-03-20T08:07:40.085Z,7.03
2023-03-20T08:10:06.842Z,7.06
2023-03-20T08:12:35.729Z,7.08
2023-03-20T08:15:03.251Z,7.12
2023-03-20T08:17:29.789Z,7.14
2023-03-20T08:19:56.544Z,7.19
2023-03-20T08:22:23.000Z,7.19
2023-03-20T08:24:54.091Z,7.21
2023-03-20T08:27:22.936Z,7.24
2023-03-20T08:29:49.489Z,7.27
2023-03-20T08:32:16.069Z,7.31
2023-03-20T08:34:42.712Z,7.36
2023-03-20T08:37:14.002Z,7.42
2023-03-20T08:39:43.070Z,7.50
2023-03-20T08:42:09.606Z,7.56
2023-03-20T08:44:36.317Z,7.60
2023-03-20T08:47:03.521Z,7.62
2023-03-20T08:49:32.412Z,7.67
2023-03-20T08:51:59.734Z,7.75
2023-03-20T08:54:29.026Z,7.81
2023-03-20T08:56:57.864Z,7.88
2023-03-20T08:59:31.345Z,7.95
2023-03-20T09:01:57.994Z,8.01
2023-03-20T09:04:25.521Z,8.05
2023-03-20T09:06:55.003Z,8.05
2023-03-20T09:09:27.058Z,8.08
2023-03-20T09:11:56.707Z,8.12
2023-03-20T09:14:24.412Z,8.15
2023-03-20T09:16:50.895Z,8.15
2023-03-20T09:19:18.739Z,8.12
2023-03-20T09:21:48.804Z,8.11
2023-03-20T09:24:17.815Z,8.08
2023-03-20T09:26:44.381Z,8.09
2023-03-20T09:29:11.166Z,8.13
2023-03-20T09:31:41.425Z,8.13
2023-03-20T09:34:07.925Z,8.17
2023-03-20T09:36:34.415Z,8.08
2023-03-20T09:39:05.899Z,8.08
2023-03-20T09:41:48.983Z,8.06
2023-03-20T09:44:52.977Z,8.09
2023-03-20T09:47:28.124Z,8.16
2023-03-20T09:50:23.781Z,8.12
2023-03-20T09:53:06.946Z,8.15
2023-03-20T09:55:36.576Z,8.24
2023-03-20T09:58:13.319Z,8.31
2023-03-20T10:00:42.679Z,8.37
2023-03-20T10:03:27.585Z,8.37
2023-03-20T10:06:01.843Z,8.36
2023-03-20T10:08:36.687Z,8.45
2023-03-20T10:11:41.338Z,8.48
2023-03-20T10:14:24.504Z,8.55
2023-03-20T10:16:59.984Z,8.57
2023-03-20T10:19:45.523Z,8.67
2023-03-20T10:22:34.579Z,8.66
2023-03-20T10:25:13.046Z,8.66
2023-03-20T10:27:44.265Z,8.73
2023-03-20T10:30:52.130Z,8.71
2023-03-20T10:33:43.012Z,8.57
2023-03-20T10:36:30.245Z,8.58
2023-03-20T10:39:19.854Z,8.65
2023-03-20T10:41:54.952Z,8.66
2023-03-20T10:44:28.861Z,8.54
2023-03-20T10:47:01.697Z,8.43
2023-03-20T10:49:44.497Z,8.48
2023-03-20T10:52:16.484Z,8.41
2023-03-20T10:54:52.725Z,8.40
2023-03-20T10:57:32.097Z,8.40
2023-03-20T11:00:05.510Z,8.38
2023-03-20T11:02:32.419Z,8.37
2023-03-20T11:05:00.569Z,8.34
2023-03-20T11:07:37.111Z,8.48
2023-03-20T11:10:10.357Z,8.55
2023-03-20T11:12:52.601Z,8.59
2023-03-20T11:15:31.487Z,8.61
2023-03-20T11:18:04.651Z,8.75
2023-03-20T11:20:42.080Z,8.73
2023-03-20T11:23:16.839Z,8.71
2023-03-20T11:25:52.426Z,8.66
2023-03-20T11:28:41.529Z,8.58
2023-03-20T11:31:10.944Z,8.46
2023-03-20T11:33:42.636Z,8.38
2023-03-20T11:36:33.022Z,8.38
2023-03-20T11:39:26.866Z,8.39
2023-03-20T11:41:58.277Z,8.39
2023-03-20T11:44:46.150Z,8.38
2023-03-20T11:47:19.449Z,8.49
2023-03-20T11:50:06.453Z,8.54
2023-03-20T11:52:40.200Z,8.59
2023-03-20T11:55:32.060Z,8.56
2023-03-20T11:58:00.678Z,8.53
2023-03-20T12:00:37.496Z,8.57
2023-03-20T12:03:33.283Z,8.63
2023-03-20T12:06:06.064Z,8.57
2023-03-20T12:08:36.847Z,8.58
2023-03-20T12:11:19.504Z,8.65
2023-03-20T12:13:51.283Z,8.71
2023-03-20T12:16:25.699Z,8.70
2023-03-20T12:18:57.696Z,8.66
2023-03-20T12:21:38.615Z,8.65
2023-03-20T12:24:13.600Z,8.73
2023-03-20T12:26:58.923Z,8.65
2023-03-20T12:29:50.306Z,8.65
2023-03-20T12:32:46.461Z,8.71
2023-03-20T12:35:32.253Z,8.76
2023-03-20T12:38:01.356Z,8.67
2023-03-20T12:40:42.020Z,8.71
2023-03-20T12:43:22.003Z,8.67
2023-03-20T12:46:05.530Z,8.60
2023-03-20T12:48:38.220Z,8.58
2023-03-20T12:51:28.422Z,8.74
2023-03-20T12:54:13.821Z,8.83
2023-03-20T12:56:55.268Z,8.89
2023-03-20T12:59:39.478Z,8.82
2023-03-20T13:02:15.532Z,8.80
2023-03-20T13:05:10.668Z,8.88
2023-03-20T13:07:52.806Z,8.81
2023-03-20T13:10:25.053Z,8.85
2023-03-20T13:13:06.773Z,8.83
2023-03-20T13:16:19.414Z,8.73
2023-03-20T13:19:08.069Z,8.63
2023-03-20T13:21:56.634Z,8.59
2023-03-20T13:25:02.728Z,8.61
2023-03-20T13:27:39.189Z,8.58
2023-03-20T13:30:19.262Z,8.60
2023-03-20T13:33:00.876Z,8.61
2023-03-20T13:35:42.230Z,8.60
2023-03-20T13:38:15.547Z,8.65
2023-03-20T13:40:45.728Z,8.67
2023-03-20T13:43:23.926Z,8.65
2023-03-20T13:45:59.545Z,8.66
2023-03-20T13:48:40.603Z,8.66
2023-03-20T13:51:15.027Z,8.66
2023-03-20T13:53:51.319Z,8.68
2023-03-20T13:56:31.901Z,8.71
2023-03-20T13:59:03.726Z,8.72
2023-03-20T14:01:47.377Z,8.73
2023-03-20T14:04:18.724Z,8.71
2023-03-20T14:06:56.851Z,8.73
2023-03-20T14:09:34.116Z,8.73
2023-03-20T14:12:08.256Z,8.74
2023-03-20T14:14:55.138Z,8.73
2023-03-20T14:17:26.642Z,8.71
2023-03-20T14:19:57.234Z,8.65
2023-03-20T14:22:34.964Z,8.62
2023-03-20T14:25:08.659Z,8.65
2023-03-20T14:27:53.169Z,8.65
2023-03-20T14:30:31.939Z,8.65
2023-03-20T14:33:22.580Z,8.63
2023-03-20T14:35:50.978Z,8.59
2023-03-20T14:38:33.063Z,8.57
2023-03-20T14:41:01.990Z,8.57
2023-03-20T14:43:52.612Z,8.59
2023-03-20T14:46:45.370Z,8.57
2023-03-20T14:49:43.047Z,8.56
2023-03-20T14:52:40.739Z,8.55
2023-03-20T14:55:26.830Z,8.57
2023-03-20T14:57:57.485Z,8.54
2023-03-20T15:00:27.403Z,8.49
2023-03-20T15:02:58.780Z,8.48
2023-03-20T15:05:33.063Z,8.45
2023-03-20T15:08:09.520Z,8.43
2023-03-20T15:10:44.038Z,8.40
2023-03-20T15:13:15.304Z,8.40
2023-03-20T15:15:53.915Z,8.40
2023-03-20T15:18:25.824Z,8.42
2023-03-20T15:20:52.813Z,8.43
2023-03-20T15:23:19.563Z,8.47
2023-03-20T15:25:49.816Z,8.46
2023-03-20T15:28:23.868Z,8.43
2023-03-20T15:30:57.207Z,8.41
2023-03-20T15:33:31.157Z,8.38
2023-03-20T15:35:57.958Z,8.41
2023-03-20T15:38:32.331Z,8.41
2023-03-20T15:40:58.821Z,8.37
2023-03-20T15:43:28.136Z,8.35
2023-03-20T15:46:16.241Z,8.32
2023-03-20T15:48:48.605Z,8.30
2023-03-20T15:51:16.381Z,8.29
2023-03-20T15:53:48.603Z,8.28
2023-03-20T15:56:19.414Z,8.26
2023-03-20T15:58:49.106Z,8.20
2023-03-20T16:01:21.954Z,8.19
2023-03-20T16:03:49.031Z,8.19
2023-03-20T16:06:19.755Z,8.21
2023-03-20T16:08:58.975Z,8.23
2023-03-20T16:11:28.003Z,8.23
2023-03-20T16:13:54.682Z,8.25
2023-03-20T16:16:23.848Z,8.25
2023-03-20T16:18:51.222Z,8.26
2023-03-20T16:21:55.712Z,8.25
2023-03-20T16:24:28.916Z,8.25
2023-03-20T16:26:55.904Z,8.24
2023-03-20T16:29:25.430Z,8.24
2023-03-20T16:31:56.947Z,8.26
2023-03-20T16:34:34.215Z,8.26
2023-03-20T16:37:20.740Z,8.24
2023-03-20T16:39:49.540Z,8.24
2023-03-20T16:42:25.821Z,8.25
2023-03-20T16:44:57.386Z,8.24
2023-03-20T16:47:36.517Z,8.24
2023-03-20T16:50:22.145Z,8.26
2023-03-20T16:53:00.276Z,8.26
2023-03-20T16:55:32.542Z,8.26
2023-03-20T16:58:05.931Z,8.26
2023-03-20T17:00:42.780Z,8.25
2023-03-20T17:03:24.856Z,8.25
2023-03-20T17:05:59.512Z,8.26
2023-03-20T17:08:46.003Z,8.25
2023-03-20T17:11:22.338Z,8.26
2023-03-20T17:13:53.631Z,8.26
2023-03-20T17:16:24.234Z,8.26
2023-03-20T17:19:10.572Z,8.26
2023-03-20T17:21:41.171Z,8.26
2023-03-20T17:24:07.883Z,8.27
2023-03-20T17:26:34.393Z,8.28
2023-03-20T17:29:03.210Z,8.30
2023-03-20T17:31:29.813Z,8.30
2023-03-20T17:33:56.494Z,8.30
2023-03-20T17:36:28.976Z,8.32
2023-03-20T17:39:01.388Z,8.33
2023-03-20T17:41:28.522Z,8.32
2023-03-20T17:43:58.096Z,8.33
2023-03-20T17:46:30.285Z,8.33
2023-03-20T17:49:12.552Z,8.32
2023-03-20T17:51:41.579Z,8.32
2023-03-20T17:54:10.467Z,8.33
2023-03-20T17:56:42.072Z,8.34
2023-03-20T17:59:17.275Z,8.35
2023-03-20T18:01:44.238Z,8.35
2023-03-20T18:04:10.776Z,8.36
2023-03-20T18:06:37.281Z,8.35
2023-03-20T18:09:04.357Z,8.36
2023-03-20T18:11:30.864Z,8.37
2023-03-20T18:13:57.440Z,8.37
2023-03-20T18:16:30.633Z,8.38
2023-03-20T18:19:01.507Z,8.40
2023-03-20T18:21:28.455Z,8.40
2023-03-20T18:23:54.983Z,8.41
2023-03-20T18:26:29.222Z,8.41
2023-03-20T18:28:56.245Z,8.43
2023-03-20T18:31:26.385Z,8.44
2023-03-20T18:33:53.455Z,8.44
2023-03-20T18:36:24.474Z,8.46
2023-03-20T18:38:54.122Z,8.47
2023-03-20T18:41:20.898Z,8.46
2023-03-20T18:43:50.760Z,8.48
2023-03-20T18:46:20.152Z,8.47
2023-03-20T18:48:47.246Z,8.48
2023-03-20T18:51:14.446Z,8.48
2023-03-20T18:53:44.132Z,8.50
2023-03-20T18:56:16.544Z,8.51
2023-03-20T18:58:46.814Z,8.51
2023-03-20T19:01:17.384Z,8.52
2023-03-20T19:03:45.690Z,8.52
2023-03-20T19:06:26.610Z,8.55
2023-03-20T19:08:53.485Z,8.57
2023-03-20T19:11:21.719Z,8.56
2023-03-20T19:13:52.795Z,8.58
2023-03-20T19:16:24.466Z,8.58
2023-03-20T19:18:58.603Z,8.60
2023-03-20T19:21:29.211Z,8.62
2023-03-20T19:24:00.274Z,8.63
2023-03-20T19:26:31.655Z,8.64
2023-03-20T19:29:01.197Z,8.66
2023-03-20T19:31:30.536Z,8.67
2023-03-20T19:33:57.152Z,8.68
2023-03-20T19:36:29.581Z,8.68
2023-03-20T19:38:59.501Z,8.71
2023-03-20T19:41:29.597Z,8.71
2023-03-20T19:43:57.057Z,8.72
2023-03-20T19:46:39.542Z,8.72
2023-03-20T19:49:17.822Z,8.74
2023-03-20T19:51:48.155Z,8.75
2023-03-20T19:54:17.861Z,8.75
2023-03-20T19:56:46.704Z,8.75
2023-03-20T19:59:17.767Z,8.76
2023-03-20T20:01:47.390Z,8.77
2023-03-20T20:04:14.693Z,8.79
2023-03-20T20:06:41.884Z,8.80
2023-03-20T20:09:11.524Z,8.80
2023-03-20T20:11:38.120Z,8.81
2023-03-20T20:14:08.546Z,8.83
2023-03-20T20:16:37.011Z,8.83
2023-03-20T20:19:08.361Z,8.85
2023-03-20T20:24:24.259Z,8.88
2023-03-20T20:27:11.606Z,8.89
2023-03-20T20:29:42.361Z,8.91
2023-03-20T20:32:11.606Z,8.91
2023-03-20T20:40:17.918Z,8.96
2023-03-20T20:42:51.414Z,8.96
2023-03-20T20:45:20.355Z,8.98
2023-03-20T20:47:50.393Z,9.00
2023-03-20T20:50:24.031Z,9.01
2023-03-20T20:52:51.616Z,9.02
2023-03-20T20:55:23.544Z,9.02
2023-03-20T20:57:52.073Z,9.03
2023-03-20T21:00:34.060Z,9.05
2023-03-20T21:03:08.048Z,9.06
2023-03-20T21:05:38.456Z,9.07
2023-03-20T21:08:05.397Z,9.06
2023-03-20T21:10:31.873Z,9.07
2023-03-20T21:12:59.887Z,9.08
2023-03-20T21:15:29.575Z,9.09
2023-03-20T21:18:03.412Z,9.09
2023-03-20T21:20:33.335Z,9.11
2023-03-20T21:22:59.820Z,9.11
2023-03-20T21:25:39.227Z,9.10
2023-03-20T21:28:10.406Z,9.12
2023-03-20T21:30:49.867Z,9.12
2023-03-20T21:33:28.406Z,9.12
2023-03-20T21:35:54.910Z,9.12
2023-03-20T21:41:13.868Z,9.11
2023-03-20T21:43:41.323Z,9.12
2023-03-20T21:49:47.780Z,9.13
2023-03-20T21:58:03.374Z,9.12
2023-03-20T22:02:59.635Z,9.12
2023-03-20T22:06:19.519Z,9.11
2023-03-20T22:17:51.000Z,9.10
2023-03-20T22:25:57.560Z,9.11
2023-03-20T22:28:49.836Z,9.10
2023-03-20T22:34:25.808Z,9.09
2023-03-20T22:40:02.286Z,9.08
2023-03-20T22:42:43.734Z,9.08
2023-03-20T22:45:00.353Z,9.06
2023-03-20T22:47:28.086Z,9.07
2023-03-20T22:49:57.128Z,9.06
2023-03-20T22:52:45.437Z,9.06
2023-03-20T22:55:12.328Z,9.06
2023-03-20T22:57:45.613Z,9.06
2023-03-20T23:00:21.847Z,9.06
2023-03-20T23:02:52.935Z,9.07
2023-03-20T23:05:19.460Z,9.06
2023-03-20T23:07:46.094Z,9.07
2023-03-20T23:10:18.115Z,9.07
2023-03-20T23:12:49.904Z,9.06
2023-03-20T23:15:16.391Z,9.06
2023-03-20T23:17:47.656Z,9.06
2023-03-20T23:20:18.831Z,9.05
2023-03-20T23:22:47.732Z,9.04
2023-03-20T23:25:30.758Z,9.04
2023-03-20T23:28:02.829Z,9.04
2023-03-20T23:30:37.977Z,9.05
2023-03-20T23:33:12.517Z,9.04
2023-03-20T23:35:38.982Z,9.04
2023-03-20T23:38:08.163Z,9.03
2023-03-20T23:40:35.231Z,9.02
2023-03-20T23:43:04.003Z,9.03
2023-03-20T23:45:33.021Z,9.03
2023-03-20T23:48:02.100Z,9.02
2023-03-20T23:50:36.875Z,9.02
2023-03-20T23:53:20.709Z,9.00
2023-03-20T23:55:52.259Z,9.01
2023-03-20T23:58:22.916Z,9.00
